Weather at Danbury Municipal Airport

Public forecast

Using degrees Fahrenheit for public forecast. Weather courtesy of forecast.io.

Current aviation weather report (METAR) for Danbury Municipal Airport

Report is more than 6 hours old.

2022/11/14 14:53 (retrieved 2 years ago)

KDXR 141453Z 30012G19KT 10SM FEW043 05/M07 A3030 RMK AO2 SLP263 T00501067 51023

Closest aviation forecast (TAF) to Danbury Municipal Airport

Forecast is more than 12 hours old.

Closest forecast is Igor I Sikorsky Memorial Airport, 20.3 nm (37.7 km) SE.

2023/02/22 18:24 Ammendment (retrieved 1 year ago)

TAF KBDR 221722Z 2218/2318 18005KT P6SM OVC070 FM222000 18005KT 6SM -RA BR SCT025 OVC050 TEMPO 2220/2222 -RAPL OVC015 FM222200 10005KT 5SM -RA OVC010 FM230000 09007KT 5SM -RA BR OVC008 FM230500 06006KT 3SM -RADZ BR OVC006 FM231200 06004KT 1SM -DZ BR OVC007 AMD NOT SKED